createdAt,value
2022-12-08T00:01:20.391Z,3.70
2022-12-08T00:03:49.025Z,3.73
2022-12-08T00:06:42.773Z,3.78
2022-12-08T00:09:24.806Z,3.76
2022-12-08T00:11:55.494Z,3.68
2022-12-08T00:14:30.371Z,3.71
2022-12-08T00:16:59.005Z,3.70
2022-12-08T00:19:28.084Z,3.67
2022-12-08T00:21:56.191Z,3.56
2022-12-08T00:24:25.877Z,3.64
2022-12-08T00:26:53.585Z,3.64
2022-12-08T00:29:21.642Z,3.67
2022-12-08T00:31:51.574Z,3.55
2022-12-08T00:34:19.559Z,3.50
2022-12-08T00:36:47.834Z,3.51
2022-12-08T00:39:18.047Z,3.54
2022-12-08T00:42:03.595Z,3.52
2022-12-08T00:44:31.090Z,3.57
2022-12-08T00:47:00.207Z,3.59
2022-12-08T00:49:27.873Z,3.57
2022-12-08T00:51:55.783Z,3.57
2022-12-08T00:54:23.947Z,3.58
2022-12-08T00:56:52.088Z,3.56
2022-12-08T00:59:20.230Z,3.61
2022-12-08T01:01:48.737Z,3.59
2022-12-08T01:04:19.553Z,3.63
2022-12-08T01:06:47.979Z,3.62
2022-12-08T01:09:17.184Z,3.63
2022-12-08T01:11:45.552Z,3.61
2022-12-08T01:14:13.724Z,3.59
2022-12-08T01:16:42.385Z,3.61
2022-12-08T01:19:12.011Z,3.61
2022-12-08T01:21:42.210Z,3.60
2022-12-08T01:24:12.963Z,3.65
2022-12-08T01:26:41.264Z,3.69
2022-12-08T01:29:09.050Z,3.70
2022-12-08T01:31:36.898Z,3.74
2022-12-08T01:34:05.062Z,3.77
2022-12-08T01:36:36.900Z,3.83
2022-12-08T01:39:08.311Z,3.80
2022-12-08T01:41:37.653Z,3.78
2022-12-08T01:44:43.769Z,3.76
2022-12-08T01:47:13.121Z,3.77
2022-12-08T01:49:40.872Z,3.78
2022-12-08T01:52:14.942Z,3.80
2022-12-08T01:54:47.338Z,3.78
2022-12-08T01:57:19.454Z,3.78
2022-12-08T01:59:51.149Z,3.82
2022-12-08T02:02:20.425Z,3.75
2022-12-08T02:04:48.565Z,3.75
2022-12-08T02:07:18.504Z,3.75
2022-12-08T02:09:47.195Z,3.77
2022-12-08T02:12:15.192Z,3.82
2022-12-08T02:14:51.910Z,3.83
2022-12-08T02:17:36.513Z,3.85
2022-12-08T02:20:34.269Z,3.84
2022-12-08T02:23:11.643Z,3.87
2022-12-08T02:25:47.827Z,3.85
2022-12-08T02:28:39.052Z,3.82
2022-12-08T02:31:18.452Z,3.81
2022-12-08T02:34:10.804Z,3.86
2022-12-08T02:36:47.992Z,3.87
2022-12-08T02:39:26.685Z,3.80
2022-12-08T02:42:00.674Z,3.79
2022-12-08T02:44:33.977Z,3.79
2022-12-08T02:47:06.871Z,3.77
2022-12-08T02:49:36.911Z,3.78
2022-12-08T02:52:09.497Z,3.83
2022-12-08T02:54:37.860Z,3.85
2022-12-08T02:57:22.672Z,3.86
2022-12-08T03:00:03.494Z,3.86
2022-12-08T03:02:49.820Z,3.85
2022-12-08T03:05:39.895Z,3.86
2022-12-08T03:08:15.799Z,3.86
2022-12-08T03:10:48.338Z,3.84
2022-12-08T03:13:18.294Z,3.86
2022-12-08T03:15:50.712Z,3.78
2022-12-08T03:18:23.921Z,3.76
2022-12-08T03:20:53.078Z,3.73
2022-12-08T03:23:23.167Z,3.68
2022-12-08T03:25:57.336Z,3.62
2022-12-08T03:28:25.717Z,3.65
2022-12-08T03:30:58.855Z,3.57
2022-12-08T03:33:31.415Z,3.57
2022-12-08T03:36:03.038Z,3.54
2022-12-08T03:38:38.831Z,3.50
2022-12-08T03:41:20.408Z,3.51
2022-12-08T03:43:49.646Z,3.53
2022-12-08T03:46:18.218Z,3.46
2022-12-08T03:48:45.953Z,3.49
2022-12-08T03:51:15.658Z,3.50
2022-12-08T03:53:43.904Z,3.50
2022-12-08T03:56:17.720Z,3.51
2022-12-08T03:58:45.649Z,3.53
2022-12-08T04:01:13.631Z,3.49
2022-12-08T04:03:41.413Z,3.54
2022-12-08T04:06:09.384Z,3.53
2022-12-08T04:08:38.521Z,3.52
2022-12-08T04:11:07.247Z,3.51
2022-12-08T04:13:35.097Z,3.50
2022-12-08T04:16:03.300Z,3.54
2022-12-08T04:18:31.236Z,3.54
2022-12-08T04:20:58.947Z,3.49
2022-12-08T04:23:26.796Z,3.56
2022-12-08T04:25:55.813Z,3.52
2022-12-08T04:28:23.572Z,3.49
2022-12-08T04:30:51.420Z,3.53
2022-12-08T04:33:19.087Z,3.47
2022-12-08T04:35:46.791Z,3.48
2022-12-08T04:38:14.935Z,3.44
2022-12-08T04:40:42.708Z,3.46
2022-12-08T04:43:11.781Z,3.48
2022-12-08T04:45:41.110Z,3.52
2022-12-08T04:48:09.788Z,3.54
2022-12-08T04:50:40.847Z,3.52
2022-12-08T04:53:09.177Z,3.51
2022-12-08T04:55:39.423Z,3.42
2022-12-08T04:58:07.107Z,3.41
2022-12-08T05:00:36.208Z,3.33
2022-12-08T05:03:03.995Z,3.37
2022-12-08T05:05:31.716Z,3.31
2022-12-08T05:07:59.450Z,3.27
2022-12-08T05:10:27.350Z,3.34
2022-12-08T05:12:55.229Z,3.29
2022-12-08T05:15:22.954Z,3.25
2022-12-08T05:17:52.032Z,3.24
2022-12-08T05:20:19.906Z,3.28
2022-12-08T05:22:47.644Z,3.23
2022-12-08T05:25:15.911Z,3.27
2022-12-08T05:27:43.900Z,3.26
2022-12-08T05:30:12.100Z,3.23
2022-12-08T05:32:39.916Z,3.32
2022-12-08T05:35:09.797Z,3.32
2022-12-08T05:37:37.663Z,3.38
2022-12-08T05:40:06.537Z,3.35
2022-12-08T05:42:34.543Z,3.37
2022-12-08T05:45:02.300Z,3.40
2022-12-08T05:47:34.535Z,3.44
2022-12-08T05:50:04.063Z,3.48
2022-12-08T05:52:33.640Z,3.42
2022-12-08T05:55:01.478Z,3.46
2022-12-08T05:57:29.263Z,3.41
2022-12-08T05:59:59.387Z,3.42
2022-12-08T06:02:27.458Z,3.44
2022-12-08T06:04:55.221Z,3.42
2022-12-08T06:07:22.932Z,3.44
2022-12-08T06:09:52.278Z,3.44
2022-12-08T06:12:21.165Z,3.45
2022-12-08T06:14:48.823Z,3.44
2022-12-08T06:17:16.505Z,3.51
2022-12-08T06:19:44.182Z,3.46
2022-12-08T06:22:11.909Z,3.47
2022-12-08T06:24:39.692Z,3.51
2022-12-08T06:27:08.705Z,3.53
2022-12-08T06:29:36.449Z,3.57
2022-12-08T06:32:04.155Z,3.50
2022-12-08T06:34:31.998Z,3.52
2022-12-08T06:36:59.664Z,3.52
2022-12-08T06:39:27.535Z,3.53
2022-12-08T06:42:12.932Z,3.59
2022-12-08T06:44:41.932Z,3.55
2022-12-08T06:47:09.613Z,3.53
2022-12-08T06:49:37.505Z,3.56
2022-12-08T06:52:05.722Z,3.56
2022-12-08T06:54:33.440Z,3.54
2022-12-08T06:57:01.183Z,3.54
2022-12-08T06:59:28.871Z,3.58
2022-12-08T07:01:58.551Z,3.51
2022-12-08T07:04:26.788Z,3.53
2022-12-08T07:06:54.514Z,3.49
2022-12-08T07:09:22.267Z,3.49
2022-12-08T07:11:49.945Z,3.48
2022-12-08T07:14:17.696Z,3.47
2022-12-08T07:16:45.413Z,3.51
2022-12-08T07:19:15.022Z,3.45
2022-12-08T07:21:42.746Z,3.43
2022-12-08T07:24:10.427Z,3.44
2022-12-08T07:26:38.482Z,3.47
2022-12-08T07:29:06.683Z,3.46
2022-12-08T07:31:34.364Z,3.41
2022-12-08T07:34:02.044Z,3.39
2022-12-08T07:36:32.438Z,3.42
2022-12-08T07:39:00.410Z,3.44
2022-12-08T07:41:28.364Z,3.37
2022-12-08T07:43:57.220Z,3.33
2022-12-08T07:46:26.779Z,3.31
2022-12-08T07:48:55.590Z,3.30
2022-12-08T07:51:24.779Z,3.28
2022-12-08T07:53:55.140Z,3.30
2022-12-08T07:56:24.075Z,3.30
2022-12-08T07:58:52.029Z,3.34
2022-12-08T08:01:25.837Z,3.36
2022-12-08T08:03:54.954Z,3.40
2022-12-08T08:06:22.694Z,3.36
2022-12-08T08:08:50.466Z,3.39
2022-12-08T08:11:21.550Z,3.43
2022-12-08T08:13:49.883Z,3.35
2022-12-08T08:16:18.813Z,3.41
2022-12-08T08:18:48.685Z,3.40
2022-12-08T08:21:43.643Z,3.46
2022-12-08T08:24:05.093Z,3.50
2022-12-08T08:26:34.126Z,3.55
2022-12-08T08:29:01.825Z,3.59
2022-12-08T08:31:29.614Z,3.61
2022-12-08T08:33:58.034Z,3.58
2022-12-08T08:36:26.574Z,3.59
2022-12-08T08:38:54.240Z,3.62
2022-12-08T08:41:21.950Z,3.63
2022-12-08T08:43:50.956Z,3.62
2022-12-08T08:46:18.699Z,3.66
2022-12-08T08:48:46.393Z,3.67
2022-12-08T08:51:15.680Z,3.70
2022-12-08T08:53:44.124Z,3.66
2022-12-08T08:56:13.070Z,3.73
2022-12-08T08:58:40.836Z,3.68
2022-12-08T09:01:10.107Z,3.72
2022-12-08T09:03:37.870Z,3.80
2022-12-08T09:06:05.791Z,3.89
2022-12-08T09:08:33.739Z,3.87
2022-12-08T09:11:01.487Z,3.79
2022-12-08T09:13:29.571Z,3.77
2022-12-08T09:15:57.349Z,3.85
2022-12-08T09:18:26.822Z,3.87
2022-12-08T09:20:54.885Z,3.89
2022-12-08T09:23:22.541Z,3.91
2022-12-08T09:25:50.244Z,4.01
2022-12-08T09:28:17.921Z,3.94
2022-12-08T09:30:45.631Z,3.98
2022-12-08T09:33:13.348Z,3.97
2022-12-08T09:35:42.393Z,3.95
2022-12-08T09:38:10.103Z,3.95
2022-12-08T09:40:45.162Z,4.01
2022-12-08T09:43:25.221Z,3.99
2022-12-08T09:45:54.048Z,3.95
2022-12-08T09:48:26.385Z,4.04
2022-12-08T09:50:57.957Z,4.08
2022-12-08T09:53:35.337Z,4.21
2022-12-08T09:56:07.811Z,4.19
2022-12-08T09:58:47.530Z,4.09
2022-12-08T10:01:15.854Z,4.14
2022-12-08T10:03:44.118Z,4.18
2022-12-08T10:06:22.371Z,4.07
2022-12-08T10:09:02.047Z,3.94
2022-12-08T10:11:37.551Z,3.89
2022-12-08T10:14:20.025Z,3.91
2022-12-08T10:16:50.421Z,3.96
2022-12-08T10:19:22.662Z,3.98
2022-12-08T10:21:54.034Z,4.11
2022-12-08T10:24:29.967Z,4.07
2022-12-08T10:26:58.432Z,4.12
2022-12-08T10:29:26.233Z,4.06
2022-12-08T10:31:54.062Z,4.09
2022-12-08T10:34:24.352Z,4.16
2022-12-08T10:36:56.160Z,4.14
2022-12-08T10:39:32.269Z,4.08
2022-12-08T10:42:10.824Z,4.07
2022-12-08T10:44:54.965Z,4.11
2022-12-08T10:47:24.679Z,4.11
2022-12-08T10:50:09.505Z,4.15
2022-12-08T10:52:42.082Z,4.21
2022-12-08T10:55:16.889Z,4.14
2022-12-08T10:57:44.904Z,4.15
2022-12-08T11:00:15.416Z,4.21
2022-12-08T11:02:59.614Z,4.28
2022-12-08T11:05:30.691Z,4.39
2022-12-08T11:08:00.218Z,4.37
2022-12-08T11:10:38.258Z,4.43
2022-12-08T11:13:12.528Z,4.47
2022-12-08T11:15:41.436Z,4.20
2022-12-08T11:18:21.358Z,4.24
2022-12-08T11:20:56.616Z,4.19
2022-12-08T11:23:27.755Z,4.17
2022-12-08T11:25:59.772Z,4.20
2022-12-08T11:28:27.472Z,4.20
2022-12-08T11:31:01.537Z,4.21
2022-12-08T11:33:30.206Z,4.21
2022-12-08T11:36:03.372Z,4.32
2022-12-08T11:38:35.282Z,4.37
2022-12-08T11:41:10.808Z,4.35
2022-12-08T11:43:49.314Z,4.37
2022-12-08T11:46:22.990Z,4.37
2022-12-08T11:48:54.635Z,4.38
2022-12-08T11:51:31.501Z,4.39
2022-12-08T11:54:15.062Z,4.46
2022-12-08T11:56:45.789Z,4.50
2022-12-08T11:59:21.268Z,4.44
2022-12-08T12:01:49.008Z,4.47
2022-12-08T12:04:23.726Z,4.49
2022-12-08T12:07:23.074Z,4.46
2022-12-08T12:10:09.259Z,4.44
2022-12-08T12:12:51.994Z,4.40
2022-12-08T12:15:40.632Z,4.34
2022-12-08T12:18:16.921Z,4.51
2022-12-08T12:20:52.534Z,4.57
2022-12-08T12:23:24.148Z,4.58
2022-12-08T12:25:58.942Z,4.69
2022-12-08T12:28:30.773Z,4.80
2022-12-08T12:31:02.026Z,4.93
2022-12-08T12:33:32.038Z,4.88
2022-12-08T12:36:04.313Z,5.02
2022-12-08T12:38:53.910Z,5.09
2022-12-08T12:41:27.206Z,5.05
2022-12-08T12:44:33.348Z,4.86
2022-12-08T12:47:02.816Z,4.86
2022-12-08T12:50:04.086Z,4.76
2022-12-08T12:52:55.836Z,4.75
2022-12-08T12:55:26.465Z,4.84
2022-12-08T12:57:57.494Z,4.70
2022-12-08T13:00:26.787Z,4.75
2022-12-08T13:02:57.674Z,4.64
2022-12-08T13:05:28.194Z,4.66
2022-12-08T13:07:58.738Z,4.59
2022-12-08T13:10:30.186Z,4.59
2022-12-08T13:13:20.148Z,4.60
2022-12-08T13:15:52.666Z,4.66
2022-12-08T13:18:22.914Z,4.62
2022-12-08T13:20:54.005Z,4.56
2022-12-08T13:23:43.980Z,4.58
2022-12-08T13:26:18.560Z,4.54
2022-12-08T13:29:16.010Z,4.62
2022-12-08T13:31:50.428Z,4.61
2022-12-08T13:34:31.253Z,4.65
2022-12-08T13:37:07.726Z,4.63
2022-12-08T13:39:42.964Z,4.61
2022-12-08T13:42:20.687Z,4.63
2022-12-08T13:45:21.503Z,4.70
2022-12-08T13:48:20.323Z,4.67
2022-12-08T13:52:37.056Z,4.66
2022-12-08T13:54:35.298Z,4.57
2022-12-08T13:59:24.759Z,4.58
2022-12-08T14:01:57.216Z,4.55
2022-12-08T14:07:14.939Z,4.61
2022-12-08T14:09:43.742Z,4.63
2022-12-08T14:12:19.774Z,4.62
2022-12-08T14:15:05.430Z,4.57
2022-12-08T14:17:35.272Z,4.50
2022-12-08T14:20:14.300Z,4.50
2022-12-08T14:22:42.694Z,4.44
2022-12-08T14:25:15.762Z,4.47
2022-12-08T14:27:43.754Z,4.49
2022-12-08T14:30:20.438Z,4.41
2022-12-08T14:32:51.638Z,4.44
2022-12-08T14:35:23.905Z,4.41
2022-12-08T14:37:55.784Z,4.41
2022-12-08T14:40:25.578Z,4.41
2022-12-08T14:42:55.307Z,4.39
2022-12-08T14:45:23.116Z,4.36
2022-12-08T14:47:52.243Z,4.34
2022-12-08T14:50:41.921Z,4.38
2022-12-08T14:53:16.584Z,4.33
2022-12-08T14:55:47.521Z,4.27
2022-12-08T14:58:22.035Z,4.32
2022-12-08T15:00:52.170Z,4.21
2022-12-08T15:03:23.595Z,4.29
2022-12-08T15:05:53.000Z,4.26
2022-12-08T15:08:20.869Z,4.24
2022-12-08T15:11:18.670Z,4.21
2022-12-08T15:13:48.206Z,4.21
2022-12-08T15:16:25.826Z,4.16
2022-12-08T15:19:05.916Z,4.17
2022-12-08T15:21:39.005Z,4.15
2022-12-08T15:24:07.111Z,4.14
2022-12-08T15:26:41.552Z,4.08
2022-12-08T15:29:14.807Z,4.02
2022-12-08T15:31:42.504Z,4.07
2022-12-08T15:34:11.631Z,4.06
2022-12-08T15:36:40.033Z,4.06
2022-12-08T15:39:21.372Z,3.97
2022-12-08T15:41:49.070Z,3.92
2022-12-08T15:44:16.718Z,3.90
2022-12-08T15:46:44.588Z,3.86
2022-12-08T15:49:18.285Z,3.88
2022-12-08T15:51:46.260Z,3.87
2022-12-08T15:54:14.389Z,3.85
2022-12-08T15:57:17.419Z,3.78
2022-12-08T15:59:33.883Z,3.82
2022-12-08T16:02:01.711Z,3.75
2022-12-08T16:05:25.146Z,3.79
2022-12-08T16:07:22.994Z,3.77
2022-12-08T16:09:50.937Z,3.79
2022-12-08T16:18:17.605Z,3.71
2022-12-08T16:23:42.881Z,3.68
2022-12-08T16:26:28.599Z,3.63
2022-12-08T16:29:00.902Z,3.59
2022-12-08T16:31:28.846Z,3.62
2022-12-08T16:33:56.627Z,3.52
2022-12-08T16:36:25.690Z,3.43
2022-12-08T16:38:53.426Z,3.40
2022-12-08T16:41:38.919Z,3.37
2022-12-08T16:44:06.847Z,3.40
2022-12-08T16:46:34.759Z,3.32
2022-12-08T16:49:02.437Z,3.33
2022-12-08T16:51:31.834Z,3.22
2022-12-08T16:53:59.553Z,3.29
2022-12-08T16:56:32.632Z,3.31
2022-12-08T16:59:01.452Z,3.24
2022-12-08T17:01:29.271Z,3.20
2022-12-08T17:04:22.943Z,3.05
2022-12-08T17:06:46.406Z,2.96
2022-12-08T17:09:14.387Z,2.93
2022-12-08T17:11:43.627Z,2.88
2022-12-08T17:14:12.532Z,2.82
2022-12-08T17:16:40.474Z,2.82
2022-12-08T17:19:08.412Z,2.78
2022-12-08T17:21:36.153Z,2.72
2022-12-08T17:24:05.686Z,2.63
2022-12-08T17:26:33.573Z,2.67
2022-12-08T17:29:03.270Z,2.52
2022-12-08T17:31:32.955Z,2.56
2022-12-08T17:34:01.378Z,2.47
2022-12-08T17:36:29.234Z,2.46
2022-12-08T17:38:57.351Z,2.42
2022-12-08T17:41:26.423Z,2.37
2022-12-08T17:43:54.116Z,2.30
2022-12-08T17:46:22.892Z,2.28
2022-12-08T17:48:51.083Z,2.29
2022-12-08T17:51:18.812Z,2.24
2022-12-08T17:53:46.499Z,2.18
2022-12-08T17:56:17.577Z,2.13
2022-12-08T17:58:51.292Z,2.06
2022-12-08T18:01:20.781Z,1.96
2022-12-08T18:03:48.559Z,1.93
2022-12-08T18:06:17.486Z,1.87
2022-12-08T18:08:45.256Z,1.81
2022-12-08T18:11:16.319Z,1.78
2022-12-08T18:13:45.992Z,1.74
2022-12-08T18:16:14.602Z,1.70
2022-12-08T18:18:42.518Z,1.65
2022-12-08T18:21:10.543Z,1.58
2022-12-08T18:23:38.831Z,1.51
2022-12-08T18:26:07.236Z,1.48
2022-12-08T18:28:35.527Z,1.23
2022-12-08T18:31:09.717Z,1.23
2022-12-08T18:33:38.047Z,1.21
2022-12-08T18:36:09.196Z,1.15
2022-12-08T18:38:37.208Z,1.12
2022-12-08T18:41:06.722Z,1.07
2022-12-08T18:43:34.543Z,1.04
2022-12-08T18:46:05.003Z,1.02
2022-12-08T18:48:32.686Z,1.08
2022-12-08T18:51:00.356Z,1.08
2022-12-08T18:53:28.439Z,1.04
2022-12-08T18:55:56.138Z,0.97
2022-12-08T18:58:23.842Z,1.02
2022-12-08T19:00:51.745Z,1.07
2022-12-08T19:03:20.793Z,1.08
2022-12-08T19:05:48.555Z,1.13
2022-12-08T19:08:16.295Z,1.17
2022-12-08T19:10:44.034Z,1.22
2022-12-08T19:13:11.898Z,1.28
2022-12-08T19:15:39.697Z,1.30
2022-12-08T19:18:07.425Z,1.31
2022-12-08T19:20:36.480Z,1.37
2022-12-08T19:23:04.570Z,1.41
2022-12-08T19:25:32.296Z,1.42
2022-12-08T19:27:59.995Z,1.37
2022-12-08T19:30:27.682Z,1.36
2022-12-08T19:32:55.417Z,1.41
2022-12-08T19:35:23.177Z,1.45
2022-12-08T19:37:52.279Z,1.51
2022-12-08T19:40:37.792Z,1.51
2022-12-08T19:43:22.619Z,1.48
2022-12-08T19:45:50.435Z,1.50
2022-12-08T19:48:18.312Z,1.49
2022-12-08T19:50:46.083Z,1.47
2022-12-08T19:53:16.914Z,1.48
2022-12-08T19:55:45.192Z,1.48
2022-12-08T19:58:12.956Z,1.50
2022-12-08T20:00:41.779Z,1.52
2022-12-08T20:03:10.109Z,1.49
2022-12-08T20:05:38.258Z,1.51
2022-12-08T20:08:06.594Z,1.50
2022-12-08T20:10:39.225Z,1.46
2022-12-08T20:13:25.121Z,1.51
2022-12-08T20:15:53.591Z,1.54
2022-12-08T20:18:21.666Z,1.58
2022-12-08T20:20:49.911Z,1.60
2022-12-08T20:23:17.725Z,1.51
2022-12-08T20:25:47.757Z,1.51
2022-12-08T20:28:16.068Z,1.49
2022-12-08T20:30:46.793Z,1.49
2022-12-08T20:33:14.880Z,1.46
2022-12-08T20:35:43.058Z,1.38
2022-12-08T20:38:10.990Z,1.36
2022-12-08T20:40:42.484Z,1.25
2022-12-08T20:43:11.786Z,1.13
2022-12-08T20:45:39.986Z,1.09
2022-12-08T20:48:07.898Z,1.09
2022-12-08T20:50:35.852Z,1.04
2022-12-08T20:53:03.641Z,0.95
2022-12-08T20:55:31.513Z,0.94
2022-12-08T20:57:59.398Z,0.90
2022-12-08T21:00:28.802Z,0.85
2022-12-08T21:02:57.290Z,0.77
2022-12-08T21:05:25.467Z,0.76
2022-12-08T21:07:53.681Z,0.76
2022-12-08T21:10:21.519Z,0.74
2022-12-08T21:12:49.440Z,0.75
2022-12-08T21:15:17.338Z,0.78
2022-12-08T21:17:47.720Z,0.80
2022-12-08T21:20:16.087Z,0.78
2022-12-08T21:22:44.341Z,0.75
2022-12-08T21:25:12.272Z,0.78
2022-12-08T21:27:40.604Z,0.83
2022-12-08T21:30:10.598Z,0.82
2022-12-08T21:32:39.631Z,0.81
2022-12-08T21:35:10.063Z,0.80
2022-12-08T21:37:38.104Z,0.80
2022-12-08T21:40:08.014Z,0.75
2022-12-08T21:42:44.498Z,0.74
2022-12-08T21:45:13.934Z,0.64
2022-12-08T21:47:42.401Z,0.64
2022-12-08T21:50:13.002Z,0.70
2022-12-08T21:52:41.461Z,0.65
2022-12-08T21:55:12.195Z,0.62
2022-12-08T21:57:40.283Z,0.61
2022-12-08T22:00:12.655Z,0.56
2022-12-08T22:02:40.676Z,0.61
2022-12-08T22:05:09.336Z,0.57
2022-12-08T22:07:41.819Z,0.59
2022-12-08T22:10:11.671Z,0.59
2022-12-08T22:12:40.332Z,0.59
2022-12-08T22:15:09.853Z,0.63
2022-12-08T22:17:39.342Z,0.66
2022-12-08T22:20:09.266Z,0.71
2022-12-08T22:22:39.241Z,0.74
2022-12-08T22:25:10.971Z,0.76
2022-12-08T22:27:39.397Z,0.80
2022-12-08T22:30:08.782Z,0.79
2022-12-08T22:32:37.141Z,0.80
2022-12-08T22:35:05.728Z,0.79
2022-12-08T22:37:33.695Z,0.81
2022-12-08T22:40:03.169Z,0.82
2022-12-08T22:42:31.293Z,0.81
2022-12-08T22:44:59.144Z,0.76
2022-12-08T22:47:26.873Z,0.73
2022-12-08T22:49:54.643Z,0.75
2022-12-08T22:52:22.504Z,0.76
2022-12-08T22:54:50.629Z,0.69
2022-12-08T22:57:22.796Z,0.69
2022-12-08T22:59:50.622Z,0.69
2022-12-08T23:02:18.486Z,0.70
2022-12-08T23:04:47.208Z,0.67
2022-12-08T23:07:15.275Z,0.66
2022-12-08T23:09:43.472Z,0.69
2022-12-08T23:12:11.257Z,0.65
2022-12-08T23:14:40.557Z,0.68
2022-12-08T23:17:08.326Z,0.72
2022-12-08T23:19:36.864Z,0.74
2022-12-08T23:22:04.708Z,0.74
2022-12-08T23:24:32.535Z,0.76
2022-12-08T23:27:00.398Z,0.81
2022-12-08T23:29:28.317Z,0.80
2022-12-08T23:31:57.469Z,0.81
2022-12-08T23:34:25.347Z,0.77
2022-12-08T23:36:53.056Z,0.77
2022-12-08T23:39:24.132Z,0.78
2022-12-08T23:41:52.313Z,0.83
2022-12-08T23:44:20.230Z,0.85
2022-12-08T23:46:48.103Z,0.90
2022-12-08T23:49:17.640Z,0.91
2022-12-08T23:51:45.564Z,0.87
2022-12-08T23:54:13.472Z,0.89
2022-12-08T23:56:42.742Z,0.90
2022-12-08T23:59:10.599Z,0.91
